Time;durP1;ratioP1;P1;durP2;ratioP2;P2;SDS_P1;SDS_P2;PMS_P1;PMS_P2;Temp;Humidity;BMP_temperature;BMP_pressure;BME280_temperature;BME280_humidity;BME280_pressure;Samples;Min_cycle;Max_cycle;Signal;HPM_P1;HPM_P2
2023/08/20 00:00:52;;;;;;;17.30;14.10;;;;;;;20.49;100.00;100798.74;212801;1294;142651;-81
2023/08/20 00:05:53;;;;;;;19.40;14.40;;;;;;;20.48;100.00;100797.02;213492;1294;105786;-81
2023/08/20 00:10:53;;;;;;;18.90;14.70;;;;;;;20.46;100.00;100800.27;212885;1291;140739;-81
2023/08/20 00:15:54;;;;;;;19.80;15.50;;;;;;;20.41;100.00;100797.04;213320;1292;139425;-81
2023/08/20 00:20:55;;;;;;;19.00;15.30;;;;;;;20.37;100.00;100796.01;212850;1292;140791;-81
2023/08/20 00:25:56;;;;;;;18.00;13.50;;;;;;;20.34;100.00;100798.86;213617;1295;138602;-80
2023/08/20 00:30:57;;;;;;;19.90;14.70;;;;;;;20.31;100.00;100800.14;212986;1291;141269;-81
2023/08/20 00:35:57;;;;;;;20.40;16.20;;;;;;;20.29;100.00;100798.20;213424;1294;104629;-81
2023/08/20 00:40:58;;;;;;;20.70;15.60;;;;;;;20.27;100.00;100796.73;213334;1292;141422;-81
2023/08/20 00:45:59;;;;;;;17.70;15.00;;;;;;;20.25;100.00;100796.52;216853;1292;138929;-81
2023/08/20 00:50:59;;;;;;;18.50;14.50;;;;;;;20.22;100.00;100791.80;216647;1292;140633;-81
2023/08/20 00:55:59;;;;;;;19.00;13.90;;;;;;;20.21;100.00;100788.55;213413;1295;138644;-81
2023/08/20 01:01:00;;;;;;;19.00;14.70;;;;;;;20.20;100.00;100786.34;211377;1294;141246;-80
2023/08/20 01:06:26;;;;;;;17.30;14.80;;;;;;;20.16;100.00;100786.50;211874;1293;96394;-81
2023/08/20 01:11:39;;;;;;;22.00;17.00;;;;;;;20.11;100.00;100782.39;211424;1295;142734;-81
2023/08/20 01:16:39;;;;;;;17.20;14.00;;;;;;;20.06;100.00;100785.75;213111;1291;138436;-81
2023/08/20 01:21:55;;;;;;;17.80;14.40;;;;;;;20.03;100.00;100791.80;211497;1294;140596;-80
2023/08/20 01:27:15;;;;;;;20.10;17.00;;;;;;;20.00;100.00;100796.33;212773;1294;139118;-80
2023/08/20 01:32:16;;;;;;;17.80;14.60;;;;;;;19.95;100.00;100800.18;213131;1294;141212;-81
2023/08/20 01:37:17;;;;;;;20.60;17.00;;;;;;;19.92;100.00;100804.40;213444;1294;138680;-80
2023/08/20 01:42:18;;;;;;;19.40;16.30;;;;;;;19.90;100.00;100806.67;213197;1290;142436;-81
2023/08/20 01:47:18;;;;;;;19.60;15.90;;;;;;;19.89;100.00;100804.88;213600;1295;138475;-81
2023/08/20 01:52:19;;;;;;;21.30;17.70;;;;;;;19.86;100.00;100807.23;213161;1289;141473;-81
2023/08/20 01:57:19;;;;;;;19.20;14.50;;;;;;;19.83;100.00;100805.39;213764;1294;139211;-81
2023/08/20 02:02:20;;;;;;;21.40;17.40;;;;;;;19.80;100.00;100813.04;213129;1291;140074;-81
2023/08/20 02:07:20;;;;;;;20.50;16.20;;;;;;;19.79;100.00;100820.39;213571;1294;139856;-81
2023/08/20 02:12:21;;;;;;;19.30;16.70;;;;;;;19.77;100.00;100829.79;213160;1295;140306;-81
2023/08/20 02:17:23;;;;;;;23.70;15.90;;;;;;;19.76;100.00;100834.11;213593;1294;138771;-81
2023/08/20 02:22:24;;;;;;;19.90;16.40;;;;;;;19.75;100.00;100830.29;213170;1294;141269;-81
2023/08/20 02:27:24;;;;;;;20.70;16.90;;;;;;;19.74;100.00;100830.08;213470;1293;140033;-81
2023/08/20 02:32:24;;;;;;;23.00;18.10;;;;;;;19.74;100.00;100830.02;214891;1291;140667;-81
2023/08/20 02:37:25;;;;;;;20.70;17.10;;;;;;;19.73;100.00;100830.82;217496;1291;139847;-81
2023/08/20 02:42:25;;;;;;;17.00;14.20;;;;;;;19.71;100.00;100828.61;215808;1293;143120;-82
2023/08/20 02:47:26;;;;;;;20.90;17.80;;;;;;;19.69;100.00;100827.15;212731;1292;139309;-82
2023/08/20 02:52:26;;;;;;;23.10;17.60;;;;;;;19.67;100.00;100830.38;211495;1302;141608;-81
2023/08/20 02:57:27;;;;;;;25.70;20.30;;;;;;;19.65;100.00;100821.33;212227;1294;139278;-82
2023/08/20 03:02:27;;;;;;;24.20;19.80;;;;;;;19.63;100.00;100819.36;211580;1295;142516;-81
2023/08/20 03:07:27;;;;;;;26.00;18.60;;;;;;;19.61;100.00;100810.70;212017;1305;138736;-82
2023/08/20 03:12:28;;;;;;;21.10;17.20;;;;;;;19.58;100.00;100804.79;211673;1296;141205;-81
2023/08/20 03:17:29;;;;;;;25.60;18.10;;;;;;;19.55;100.00;100804.20;213490;1291;95986;-82
2023/08/20 03:22:29;;;;;;;26.50;19.70;;;;;;;19.51;100.00;100804.20;213046;1290;139668;-81
2023/08/20 03:27:30;;;;;;;20.40;17.20;;;;;;;19.47;100.00;100800.69;213630;1294;138673;-81
2023/08/20 03:32:31;;;;;;;21.20;17.30;;;;;;;19.45;100.00;100799.70;213022;1290;140785;-81
2023/08/20 03:37:32;;;;;;;19.60;16.00;;;;;;;19.43;100.00;100805.23;213615;1294;138930;-81
2023/08/20 03:42:32;;;;;;;23.70;18.90;;;;;;;19.40;100.00;100813.73;213308;1295;141314;-81
2023/08/20 03:47:33;;;;;;;23.30;18.20;;;;;;;19.38;100.00;100819.29;213747;1290;95260;-81
2023/08/20 03:52:33;;;;;;;24.20;19.10;;;;;;;19.36;100.00;100825.30;213023;1292;141026;-81
2023/08/20 03:57:34;;;;;;;26.40;19.20;;;;;;;19.35;100.00;100830.27;213643;1290;138848;-82
2023/08/20 04:02:34;;;;;;;21.70;17.70;;;;;;;19.34;100.00;100832.36;212859;1293;141203;-82
2023/08/20 04:07:35;;;;;;;26.60;20.70;;;;;;;19.34;100.00;100830.61;213459;1290;138644;-81
2023/08/20 04:12:36;;;;;;;22.80;18.00;;;;;;;19.35;100.00;100832.10;213062;1294;140578;-81
2023/08/20 04:17:36;;;;;;;25.40;19.20;;;;;;;19.37;100.00;100835.02;213618;1290;117424;-81
2023/08/20 04:22:37;;;;;;;27.30;20.90;;;;;;;19.39;100.00;100835.94;216019;1289;141149;-82
2023/08/20 04:27:38;;;;;;;24.00;18.90;;;;;;;19.41;100.00;100841.33;217597;1290;139294;-82
2023/08/20 04:32:39;;;;;;;25.40;19.10;;;;;;;19.44;100.00;100847.00;214160;1290;141148;-82
2023/08/20 04:37:39;;;;;;;29.20;20.10;;;;;;;19.48;100.00;100850.30;212050;1294;138878;-81
2023/08/20 04:42:40;;;;;;;23.80;18.80;;;;;;;19.53;100.00;100847.70;211362;1294;140920;-81
2023/08/20 04:47:40;;;;;;;24.40;20.50;;;;;;;19.58;100.00;100846.52;211675;1295;95282;-81
2023/08/20 04:52:41;;;;;;;29.30;23.10;;;;;;;19.64;100.00;100849.02;211326;1294;140844;-81
2023/08/20 04:57:41;;;;;;;33.60;23.50;;;;;;;19.73;100.00;100849.73;211811;1294;138843;-81
2023/08/20 05:02:41;;;;;;;33.00;24.50;;;;;;;19.81;100.00;100848.78;211600;1295;140215;-81
2023/08/20 05:07:43;;;;;;;30.70;23.50;;;;;;;19.92;100.00;100852.13;213058;1292;139631;-81
2023/08/20 05:12:44;;;;;;;31.30;25.10;;;;;;;20.01;100.00;100854.42;212952;1290;139962;-82
2023/08/20 05:17:44;;;;;;;31.60;26.10;;;;;;;20.11;100.00;100860.95;213224;1291;95258;-82
2023/08/20 05:22:44;;;;;;;36.60;27.30;;;;;;;20.30;100.00;100860.61;213054;1290;141224;-81
2023/08/20 05:27:45;;;;;;;33.50;27.80;;;;;;;20.53;100.00;100858.85;213544;1293;138695;-81
2023/08/20 05:32:45;;;;;;;33.10;28.90;;;;;;;20.85;100.00;100864.64;213092;1294;142595;-82
2023/08/20 05:37:46;;;;;;;35.80;28.70;;;;;;;21.23;100.00;100862.67;213671;1294;138814;-81
2023/08/20 05:42:47;;;;;;;33.20;27.90;;;;;;;21.71;100.00;100867.49;213130;1291;141148;-82
2023/08/20 05:47:47;;;;;;;32.20;25.60;;;;;;;22.28;100.00;100874.51;213610;1290;96193;-81
2023/08/20 05:52:49;;;;;;;28.40;23.50;;;;;;;22.87;100.00;100875.73;212989;1290;139843;-81
2023/08/20 05:57:50;;;;;;;29.30;22.80;;;;;;;23.50;100.00;100872.29;213570;1291;138830;-82
2023/08/20 06:02:50;;;;;;;26.60;21.70;;;;;;;24.04;100.00;100877.73;212990;1294;139888;-82
2023/08/20 06:07:50;;;;;;;23.10;20.40;;;;;;;24.51;100.00;100878.46;214483;1288;138689;-82
2023/08/20 06:12:51;;;;;;;23.00;19.60;;;;;;;24.90;100.00;100882.59;217318;1286;140970;-81
2023/08/20 06:17:52;;;;;;;27.10;20.40;;;;;;;25.24;100.00;100884.19;218025;1286;94229;-82
2023/08/20 06:22:52;;;;;;;21.70;18.70;;;;;;;25.50;100.00;100889.77;213108;1287;142149;-82
2023/08/20 06:27:53;;;;;;;25.50;19.80;;;;;;;25.78;100.00;100888.06;212636;1289;138540;-81
2023/08/20 06:32:54;;;;;;;20.90;18.60;;;;;;;25.96;100.00;100888.91;211976;1291;142140;-81
2023/08/20 06:37:54;;;;;;;22.30;19.30;;;;;;;26.18;100.00;100893.71;212191;1288;138797;-81
2023/08/20 06:42:54;;;;;;;23.50;20.30;;;;;;;26.42;99.70;100898.85;212086;1291;141149;-82
2023/08/20 06:47:55;;;;;;;21.50;18.40;;;;;;;26.65;97.81;100906.75;212851;1290;96447;-81
2023/08/20 06:52:55;;;;;;;20.70;17.10;;;;;;;26.88;97.51;100911.95;212832;1290;140228;-81
2023/08/20 06:57:55;;;;;;;21.30;17.20;;;;;;;27.18;98.09;100923.23;214395;1288;138503;-82
2023/08/20 07:02:56;;;;;;;21.10;16.30;;;;;;;27.46;94.08;100924.27;214267;1288;140922;-81
2023/08/20 07:07:56;;;;;;;21.40;16.20;;;;;;;27.71;93.57;100929.20;214402;1290;139205;-81
2023/08/20 07:12:57;;;;;;;18.30;16.30;;;;;;;27.93;92.35;100925.98;213980;1288;141275;-81
2023/08/20 07:17:57;;;;;;;22.30;17.50;;;;;;;28.08;91.77;100923.51;215044;1289;96552;-81
2023/08/20 07:22:58;;;;;;;19.50;16.20;;;;;;;28.31;89.68;100918.55;215088;1287;140720;-81
2023/08/20 07:27:59;;;;;;;20.90;15.90;;;;;;;28.55;89.16;100919.84;215804;1289;138495;-81
2023/08/20 07:33:00;;;;;;;19.80;17.20;;;;;;;28.73;87.80;100922.10;213813;1290;141594;-81
2023/08/20 07:38:00;;;;;;;20.20;16.30;;;;;;;28.85;84.81;100923.80;214337;1287;140512;-81
2023/08/20 07:43:00;;;;;;;19.20;17.10;;;;;;;28.92;83.90;100923.77;213862;1286;141142;-81
2023/08/20 07:48:01;;;;;;;21.80;19.40;;;;;;;29.13;83.02;100929.06;214551;1286;96801;-80
2023/08/20 07:53:01;;;;;;;19.90;17.60;;;;;;;29.34;83.19;100931.65;213839;1289;141207;-81
2023/08/20 07:58:01;;;;;;;21.50;17.90;;;;;;;29.58;82.80;100938.40;214347;1285;139033;-81
2023/08/20 08:03:02;;;;;;;23.70;19.40;;;;;;;29.82;80.65;100945.23;213842;1287;141390;-81
2023/08/20 08:08:03;;;;;;;20.00;17.80;;;;;;;30.01;79.34;100944.40;214760;1286;138774;-82
2023/08/20 08:13:03;;;;;;;20.30;18.10;;;;;;;30.21;79.48;100943.94;215379;1286;140833;-81
2023/08/20 08:18:04;;;;;;;22.60;19.70;;;;;;;30.41;80.75;100943.63;215929;1286;95279;-83
2023/08/20 08:23:05;;;;;;;21.20;18.90;;;;;;;30.52;76.11;100948.70;214999;1290;139384;-82
2023/08/20 08:28:05;;;;;;;18.40;16.40;;;;;;;30.56;74.93;100945.73;215500;1286;138956;-81
2023/08/20 08:33:06;;;;;;;18.80;16.70;;;;;;;30.68;75.15;100944.90;214719;1288;140885;-81
2023/08/20 08:38:06;;;;;;;21.80;18.20;;;;;;;30.82;73.70;100944.66;215423;1287;138793;-81
2023/08/20 08:43:07;;;;;;;21.60;19.30;;;;;;;31.02;73.49;100941.79;215017;1286;140458;-82
2023/08/20 08:48:08;;;;;;;20.50;18.40;;;;;;;31.28;72.32;100941.12;215831;1286;96647;-82
2023/08/20 08:53:10;;;;;;;19.10;17.00;;;;;;;31.50;71.93;100944.56;215379;1285;139541;-81
2023/08/20 08:58:10;;;;;;;20.00;18.00;;;;;;;31.70;71.11;100947.42;215838;1289;138827;-81
2023/08/20 09:03:11;;;;;;;20.50;17.40;;;;;;;31.86;71.73;100954.31;215358;1290;139683;-81
2023/08/20 09:08:19;;;;;;;20.40;18.30;;;;;;;32.18;73.04;100958.05;215922;1287;138137;-81
2023/08/20 09:13:33;;;;;;;21.20;19.00;;;;;;;32.62;69.69;100957.70;215548;1286;141234;-81
2023/08/20 09:18:42;;;;;;;20.80;18.20;;;;;;;33.15;68.97;100955.88;216555;1286;138202;-82
2023/08/20 09:23:45;;;;;;;20.90;18.30;;;;;;;33.78;66.40;100954.98;216024;1286;140068;-82
2023/08/20 09:28:47;;;;;;;21.00;18.00;;;;;;;34.32;63.52;100957.73;216539;1286;138270;-82
2023/08/20 09:33:54;;;;;;;19.70;17.60;;;;;;;34.85;63.35;100958.98;215399;1287;140877;-82
2023/08/20 09:38:55;;;;;;;18.50;16.40;;;;;;;35.51;61.90;100960.38;215659;1289;138531;-82
2023/08/20 09:43:59;;;;;;;18.00;15.20;;;;;;;36.18;59.86;100962.62;215262;1287;141573;-83
2023/08/20 09:49:00;;;;;;;;;;;;;;;36.79;57.56;100959.79;215206;1285;140490;-80
2023/08/20 09:54:12;;;;;;;14.80;13.20;;;;;;;37.23;57.37;100955.21;216005;1286;96107;-80
2023/08/20 09:59:13;;;;;;;15.20;13.30;;;;;;;37.69;54.84;100953.19;215392;1286;139964;-82
2023/08/20 10:04:16;;;;;;;17.00;13.80;;;;;;;38.12;52.00;100949.09;215829;1286;137874;-80
2023/08/20 10:09:18;;;;;;;17.10;15.50;;;;;;;38.31;51.25;100945.77;215442;1287;140222;-81
2023/08/20 10:14:19;;;;;;;16.00;14.40;;;;;;;38.63;50.23;100935.20;215533;1290;138505;-84
2023/08/20 10:19:20;;;;;;;16.90;13.10;;;;;;;38.56;47.76;100932.61;215386;1287;141278;-83
2023/08/20 10:24:20;;;;;;;14.50;13.00;;;;;;;38.70;47.86;100929.68;215861;1286;96595;-82
2023/08/20 10:29:38;;;;;;;16.10;14.50;;;;;;;39.09;47.90;100925.73;215261;1286;141808;-82
2023/08/20 10:34:42;;;;;;;18.10;16.30;;;;;;;39.39;45.47;100919.20;215760;1290;138481;-83
2023/08/20 10:39:54;;;;;;;15.20;13.60;;;;;;;38.92;45.63;100909.71;215212;1287;140520;-82
2023/08/20 10:45:00;;;;;;;18.30;14.70;;;;;;;39.13;46.74;100906.62;215633;1289;140016;-82
2023/08/20 10:50:01;;;;;;;15.90;12.90;;;;;;;39.60;44.42;100900.70;215302;1288;139973;-82
2023/08/20 10:55:04;;;;;;;13.90;12.40;;;;;;;39.53;44.98;100902.20;215799;1286;138126;-83
2023/08/20 11:00:10;;;;;;;14.90;13.20;;;;;;;39.86;45.05;100902.36;215280;1286;229229;-81
2023/08/20 11:05:18;;;;;;;16.10;12.50;;;;;;;40.44;43.81;100898.92;215714;1290;138245;-83
2023/08/20 11:10:19;;;;;;;13.60;12.20;;;;;;;40.43;41.72;100902.20;215219;1287;140521;-82
2023/08/20 11:15:21;;;;;;;14.20;12.50;;;;;;;40.13;41.43;100898.90;215734;1288;139164;-82
2023/08/20 11:20:21;;;;;;;13.50;12.10;;;;;;;40.05;43.23;100889.72;215007;1288;140300;-82
2023/08/20 11:25:22;;;;;;;14.00;12.70;;;;;;;40.14;41.99;100888.92;215818;1286;138049;-81
2023/08/20 11:30:24;;;;;;;12.60;11.10;;;;;;;40.33;41.40;100889.66;215374;1290;141566;-82
2023/08/20 11:35:25;;;;;;;13.50;10.00;;;;;;;40.47;41.10;100892.73;215688;1286;137701;-82
2023/08/20 11:40:26;;;;;;;11.00;9.80;;;;;;;40.49;39.29;100894.81;215363;1286;141894;-81
2023/08/20 11:45:26;;;;;;;10.80;9.70;;;;;;;40.37;39.70;100889.98;215695;1285;138631;-81
2023/08/20 11:50:27;;;;;;;13.90;11.40;;;;;;;40.43;40.84;100891.20;215517;1288;140664;-81
2023/08/20 11:55:29;;;;;;;12.70;10.90;;;;;;;40.44;40.11;100893.70;216682;1288;139691;-81
2023/08/20 12:00:31;;;;;;;13.00;11.40;;;;;;;40.26;38.31;100890.80;216035;1286;140476;-81
2023/08/20 12:05:32;;;;;;;12.50;11.10;;;;;;;39.63;38.83;100882.33;216463;1287;96604;-82
2023/08/20 12:10:33;;;;;;;12.10;10.90;;;;;;;39.44;39.57;100879.21;215636;1287;140548;-81
2023/08/20 12:15:34;;;;;;;14.10;12.30;;;;;;;39.25;39.96;100872.05;216099;1287;138057;-82
2023/08/20 12:20:35;;;;;;;12.60;10.90;;;;;;;39.03;42.36;100862.70;216336;1286;140119;-81
2023/08/20 12:25:37;;;;;;;11.70;9.80;;;;;;;39.13;41.65;100862.90;216745;1287;138323;-81
2023/08/20 12:30:38;;;;;;;11.00;9.80;;;;;;;39.05;41.56;100860.62;216080;1286;141211;-81
2023/08/20 12:35:39;;;;;;;14.10;9.80;;;;;;;39.08;40.23;100857.91;215887;1287;96710;-83
2023/08/20 12:40:39;;;;;;;14.20;11.00;;;;;;;38.59;38.56;100855.94;215112;1286;138584;-80
2023/08/20 12:45:40;;;;;;;12.10;10.80;;;;;;;38.14;39.24;100855.98;215444;1287;138009;-81
2023/08/20 12:50:41;;;;;;;14.70;10.10;;;;;;;37.97;40.60;100853.11;215028;1289;139994;-81
2023/08/20 12:55:42;;;;;;;10.70;9.60;;;;;;;37.99;40.80;100848.70;215684;1286;138272;-81
2023/08/20 13:00:43;;;;;;;11.50;9.70;;;;;;;37.98;40.94;100839.30;214943;1287;141218;-82
2023/08/20 13:05:44;;;;;;;10.70;9.50;;;;;;;37.75;39.69;100838.19;215508;1287;96060;-81
2023/08/20 13:10:52;;;;;;;11.80;10.50;;;;;;;37.31;40.07;100833.16;215148;1288;140136;-82
2023/08/20 13:15:53;;;;;;;13.20;10.50;;;;;;;37.04;41.04;100835.20;215658;1290;138889;-81
2023/08/20 13:20:54;;;;;;;12.20;10.30;;;;;;;36.77;41.06;100839.59;215126;1286;140110;-81
2023/08/20 13:25:55;;;;;;;11.60;10.10;;;;;;;36.64;42.35;100835.77;215413;1287;138219;-81
2023/08/20 13:30:55;;;;;;;13.50;10.80;;;;;;;36.47;42.56;100830.36;214855;1290;139796;-81
2023/08/20 13:35:58;;;;;;;13.50;10.60;;;;;;;36.40;43.09;100820.83;215482;1290;97967;-81
2023/08/20 13:40:59;;;;;;;13.20;10.90;;;;;;;36.22;44.21;100819.20;215001;1288;140645;-80
2023/08/20 13:45:59;;;;;;;12.70;10.60;;;;;;;36.09;44.63;100812.66;214955;1287;137874;-80
2023/08/20 13:51:00;;;;;;;13.20;10.90;;;;;;;35.91;43.66;100818.75;214599;1288;140998;-81
2023/08/20 13:56:01;;;;;;;14.20;10.80;;;;;;;35.84;46.36;100818.30;215501;1286;138656;-81
2023/08/20 14:01:01;;;;;;;13.10;10.90;;;;;;;35.89;45.53;100804.67;215350;1286;139745;-81
2023/08/20 14:06:02;;;;;;;14.90;11.40;;;;;;;35.82;44.74;100812.07;216246;1286;96591;-83
2023/08/20 14:11:03;;;;;;;14.70;11.00;;;;;;;35.64;45.20;100810.33;215266;1288;138832;-81
2023/08/20 14:16:04;;;;;;;12.50;11.10;;;;;;;35.53;45.51;100811.04;215188;1288;138287;-81
2023/08/20 14:21:05;;;;;;;13.10;11.00;;;;;;;35.29;45.63;100813.11;215001;1287;152592;-82
2023/08/20 14:26:07;;;;;;;12.70;11.40;;;;;;;35.06;45.14;100809.09;215635;1286;138028;-81
2023/08/20 14:31:08;;;;;;;17.90;11.70;;;;;;;34.99;45.94;100802.63;215341;1287;140756;-81
2023/08/20 14:36:08;;;;;;;16.80;12.10;;;;;;;34.87;45.98;100805.88;216176;1288;96382;-81
2023/08/20 14:41:08;;;;;;;12.70;11.30;;;;;;;34.62;46.59;100808.02;214912;1287;139860;-80
2023/08/20 14:46:09;;;;;;;18.60;12.40;;;;;;;34.54;48.04;100807.89;215562;1286;137813;-81
2023/08/20 14:51:09;;;;;;;14.70;12.10;;;;;;;34.37;48.21;100816.04;215302;1287;139943;-82
2023/08/20 14:56:10;;;;;;;16.50;13.30;;;;;;;34.11;49.31;100807.07;216378;1285;138858;-83
2023/08/20 15:01:10;;;;;;;17.00;13.00;;;;;;;33.75;50.45;100813.58;215227;1287;140663;-83
2023/08/20 15:06:11;;;;;;;21.10;12.00;;;;;;;33.23;51.86;100811.48;215297;1290;97066;-82
2023/08/20 15:11:11;;;;;;;15.50;11.80;;;;;;;32.89;52.43;100812.73;214855;1288;140115;-82
2023/08/20 15:16:12;;;;;;;16.90;10.90;;;;;;;32.76;52.30;100811.34;215661;1286;139898;-83
2023/08/20 15:21:12;;;;;;;17.80;11.70;;;;;;;32.52;52.71;100806.94;214972;1288;140709;-82
2023/08/20 15:26:12;;;;;;;13.60;11.70;;;;;;;32.36;53.16;100798.57;216011;1285;138109;-84
2023/08/20 15:31:13;;;;;;;13.70;9.50;;;;;;;32.10;53.57;100800.95;215304;1290;141178;-84
2023/08/20 15:36:13;;;;;;;12.40;8.90;;;;;;;31.78;53.41;100805.39;216298;1286;96737;-83
2023/08/20 15:41:14;;;;;;;11.40;9.00;;;;;;;31.55;53.65;100802.67;215703;1285;140147;-82
2023/08/20 15:46:15;;;;;;;12.00;9.10;;;;;;;31.43;54.37;100807.85;216262;1286;138447;-83
2023/08/20 15:51:16;;;;;;;11.00;8.60;;;;;;;31.32;55.07;100810.19;215432;1288;140249;-82
2023/08/20 15:56:17;;;;;;;13.70;8.60;;;;;;;31.23;57.03;100811.85;215964;1288;138260;-82
2023/08/20 16:01:17;;;;;;;12.50;8.70;;;;;;;31.19;56.33;100812.55;215454;1286;141392;-82
2023/08/20 16:06:17;;;;;;;12.90;10.20;;;;;;;31.08;57.62;100812.98;215949;1288;95280;-82
2023/08/20 16:11:18;;;;;;;12.60;10.30;;;;;;;31.03;57.85;100812.39;215739;1287;140803;-83
2023/08/20 16:16:18;;;;;;;11.80;9.40;;;;;;;30.93;57.85;100814.75;215850;1288;138048;-82
2023/08/20 16:21:19;;;;;;;12.20;10.30;;;;;;;30.91;59.20;100813.63;215409;1286;138990;-82
2023/08/20 16:26:20;;;;;;;14.00;12.00;;;;;;;30.90;60.70;100823.79;215612;1285;138432;-82
2023/08/20 16:31:21;;;;;;;14.80;11.30;;;;;;;30.86;60.43;100830.13;215378;1290;139889;-82
2023/08/20 16:36:21;;;;;;;15.30;11.90;;;;;;;30.80;60.46;100836.48;216042;1288;96408;-82
2023/08/20 16:41:22;;;;;;;13.80;11.80;;;;;;;30.77;61.25;100843.64;215318;1287;140306;-82
2023/08/20 16:46:22;;;;;;;15.50;13.00;;;;;;;30.79;61.76;100846.98;215882;1287;138066;-83
2023/08/20 16:51:22;;;;;;;16.70;13.50;;;;;;;30.78;61.82;100852.44;215551;1288;140448;-83
2023/08/20 16:56:23;;;;;;;15.10;13.30;;;;;;;30.71;61.94;100855.13;215970;1287;138074;-83
2023/08/20 17:01:23;;;;;;;15.50;13.70;;;;;;;30.68;62.04;100851.63;215332;1288;141224;-83
2023/08/20 17:06:27;;;;;;;16.80;13.30;;;;;;;30.65;62.85;100850.26;215810;1288;97147;-86
2023/08/20 17:11:27;;;;;;;17.70;15.00;;;;;;;30.66;63.13;100848.89;215132;1287;141436;-82
2023/08/20 17:16:28;;;;;;;18.60;14.70;;;;;;;30.64;63.28;100846.05;215974;1288;138706;-84
2023/08/20 17:21:29;;;;;;;17.20;14.20;;;;;;;30.57;64.25;100851.62;215353;1287;140563;-84
2023/08/20 17:26:29;;;;;;;18.30;16.20;;;;;;;30.43;64.71;100851.20;215993;1287;138586;-84
2023/08/20 17:31:30;;;;;;;21.90;17.50;;;;;;;30.30;65.01;100856.98;215197;1288;140926;-84
2023/08/20 17:36:30;;;;;;;18.10;14.90;;;;;;;30.15;65.74;100858.83;215843;1290;138046;-84
2023/08/20 17:41:31;;;;;;;19.50;16.10;;;;;;;30.03;66.47;100860.55;215347;1286;140198;-84
2023/08/20 17:46:47;;;;;;;21.40;16.30;;;;;;;29.89;66.88;100858.11;215569;1288;138177;-84
2023/08/20 17:51:48;;;;;;;18.10;16.00;;;;;;;29.72;67.09;100861.52;215101;1288;140113;-84
2023/08/20 17:56:48;;;;;;;17.00;14.80;;;;;;;29.59;67.38;100861.77;215895;1288;140791;-84
2023/08/20 18:01:49;;;;;;;17.90;15.10;;;;;;;29.45;67.61;100865.55;215446;1287;140399;-83
2023/08/20 18:06:49;;;;;;;21.50;17.30;;;;;;;29.31;67.96;100869.33;215923;1286;138726;-84
2023/08/20 18:11:50;;;;;;;17.90;14.10;;;;;;;29.13;68.22;100870.00;216089;1288;140665;-83
2023/08/20 18:16:51;;;;;;;19.60;16.40;;;;;;;29.01;68.51;100879.71;216555;1286;137912;-83
2023/08/20 18:21:51;;;;;;;20.00;15.40;;;;;;;28.82;69.15;100892.12;215720;1288;140175;-83
2023/08/20 18:26:52;;;;;;;16.90;14.60;;;;;;;28.55;70.59;100904.42;216300;1289;139259;-83
2023/08/20 18:31:52;;;;;;;19.90;15.20;;;;;;;28.33;72.31;100912.46;215707;1287;140531;-83
2023/08/20 18:36:53;;;;;;;17.90;14.60;;;;;;;28.13;74.29;100924.98;215709;1287;139524;-83
2023/08/20 18:41:54;;;;;;;16.40;13.40;;;;;;;27.95;75.82;100931.79;215365;1289;141088;-84
2023/08/20 18:46:55;;;;;;;21.30;13.90;;;;;;;27.81;76.76;100941.87;215270;1288;138486;-84
2023/08/20 18:51:56;;;;;;;15.30;13.00;;;;;;;27.66;78.11;100953.42;215145;1286;141485;-84
2023/08/20 18:56:56;;;;;;;17.00;15.10;;;;;;;27.52;78.90;100956.40;215581;1290;138680;-84
2023/08/20 19:01:57;;;;;;;19.30;14.40;;;;;;;27.38;79.83;100960.69;214783;1289;141300;-83
2023/08/20 19:06:57;;;;;;;16.50;14.10;;;;;;;27.27;80.44;100961.88;214428;1290;140085;-83
2023/08/20 19:11:58;;;;;;;15.40;12.80;;;;;;;27.13;81.31;100968.83;214484;1291;140152;-83
2023/08/20 19:16:59;;;;;;;15.60;13.40;;;;;;;26.99;82.08;100973.75;214801;1290;139558;-83
2023/08/20 19:21:59;;;;;;;17.90;14.50;;;;;;;26.85;82.42;100981.10;214300;1287;140914;-83
2023/08/20 19:27:00;;;;;;;18.20;14.70;;;;;;;26.69;83.41;100978.76;214474;1290;138754;-83
2023/08/20 19:32:00;;;;;;;20.70;14.70;;;;;;;26.54;84.22;100979.51;214086;1286;140690;-83
2023/08/20 19:37:02;;;;;;;18.30;15.10;;;;;;;26.42;84.77;100980.02;214603;1288;139487;-83
2023/08/20 19:42:03;;;;;;;18.30;14.70;;;;;;;26.29;85.00;100985.92;214063;1288;141568;-82
2023/08/20 19:47:04;;;;;;;18.30;15.50;;;;;;;26.17;85.44;100994.91;214680;1285;139486;-83
2023/08/20 19:52:05;;;;;;;18.00;15.50;;;;;;;26.02;85.99;100999.27;213922;1291;140563;-83
2023/08/20 19:57:05;;;;;;;20.90;16.10;;;;;;;25.90;86.19;101005.77;214275;1285;140263;-83
2023/08/20 20:02:06;;;;;;;19.40;16.40;;;;;;;25.80;86.30;101005.29;213804;1290;142277;-82
2023/08/20 20:07:06;;;;;;;20.50;17.60;;;;;;;25.68;86.73;101012.26;214344;1290;139655;-83
2023/08/20 20:12:06;;;;;;;20.40;17.40;;;;;;;25.52;87.29;101012.02;213803;1288;141296;-82
2023/08/20 20:17:07;;;;;;;23.00;16.90;;;;;;;25.37;87.75;101020.13;214668;1290;138728;-83
2023/08/20 20:22:07;;;;;;;18.90;16.00;;;;;;;25.21;87.67;101018.48;213952;1290;140431;-82
2023/08/20 20:27:08;;;;;;;21.30;18.20;;;;;;;25.07;87.74;101026.02;214679;1290;138985;-83
2023/08/20 20:32:09;;;;;;;25.10;17.80;;;;;;;24.94;88.36;101032.66;214015;1288;141358;-83
2023/08/20 20:37:10;;;;;;;23.40;18.10;;;;;;;24.79;88.87;101024.33;214456;1289;143218;-83
2023/08/20 20:42:11;;;;;;;21.60;17.60;;;;;;;24.64;89.36;101025.77;214271;1291;140496;-84
2023/08/20 20:47:13;;;;;;;24.10;18.70;;;;;;;24.52;89.86;101026.74;214724;1291;138771;-84
2023/08/20 20:52:13;;;;;;;24.00;18.40;;;;;;;24.42;90.07;101031.38;214319;1290;141060;-85
2023/08/20 20:57:14;;;;;;;27.30;18.50;;;;;;;24.35;90.10;101041.04;214727;1291;138863;-85
2023/08/20 21:02:15;;;;;;;28.60;20.20;;;;;;;24.26;90.68;101039.69;214006;1292;141427;-85
2023/08/20 21:07:15;;;;;;;25.40;19.90;;;;;;;24.16;91.41;101039.97;214625;1288;139741;-86
2023/08/20 21:12:16;;;;;;;27.10;19.20;;;;;;;24.05;91.68;101046.05;214314;1291;140226;-85
2023/08/20 21:17:16;;;;;;;25.50;19.10;;;;;;;23.96;92.38;101051.59;214524;1291;138821;-85
2023/08/20 21:22:16;;;;;;;26.60;19.20;;;;;;;23.86;92.92;101058.16;213969;1291;140955;-85
2023/08/20 21:27:17;;;;;;;26.00;19.30;;;;;;;23.72;93.89;101061.10;214297;1290;138856;-84
2023/08/20 21:32:17;;;;;;;24.20;18.20;;;;;;;23.60;94.61;101063.84;213969;1292;142660;-85
2023/08/20 21:37:18;;;;;;;25.10;18.40;;;;;;;23.49;95.36;101060.48;214479;1292;138647;-85
2023/08/20 21:42:19;;;;;;;23.90;18.40;;;;;;;23.39;95.58;101059.69;213747;1290;140572;-84
2023/08/20 21:47:25;;;;;;;25.10;19.10;;;;;;;23.31;96.26;101061.64;214812;1289;138469;-83
2023/08/20 21:52:26;;;;;;;;;;;;;;;23.22;96.36;101067.27;213916;1289;141046;-83
2023/08/20 21:57:27;;;;;;;22.60;16.70;;;;;;;23.14;96.58;101070.17;214574;1290;124745;-84
2023/08/20 22:02:27;;;;;;;22.40;15.60;;;;;;;23.07;96.34;101078.08;214380;1290;141175;-82
2023/08/20 22:07:27;;;;;;;23.60;15.50;;;;;;;23.02;96.60;101082.79;214965;1285;138788;-82
2023/08/20 22:12:28;;;;;;;20.10;15.60;;;;;;;22.98;97.24;101088.20;214552;1286;142936;-82
2023/08/20 22:17:29;;;;;;;19.50;15.00;;;;;;;22.92;97.37;101085.33;214605;1289;138863;-81